sensor_id;sensor_type;location;lat;lon;timestamp;temperature;humidity
44671;DHT22;48397;53.016;-2.260;2023-04-24T00:01:10;7.40;99.90
44671;DHT22;48397;53.016;-2.260;2023-04-24T00:03:40;7.40;99.90
44671;DHT22;48397;53.016;-2.260;2023-04-24T00:06:10;7.50;99.90
44671;DHT22;48397;53.016;-2.260;2023-04-24T00:08:39;7.50;99.90
44671;DHT22;48397;53.016;-2.260;2023-04-24T00:11:08;7.40;99.90
44671;DHT22;48397;53.016;-2.260;2023-04-24T00:13:44;7.50;99.90
44671;DHT22;48397;53.016;-2.260;2023-04-24T00:16:12;7.50;99.90
44671;DHT22;48397;53.016;-2.260;2023-04-24T00:18:42;7.50;99.90
44671;DHT22;48397;53.016;-2.260;2023-04-24T00:21:10;7.50;99.90
44671;DHT22;48397;53.016;-2.260;2023-04-24T00:23:40;7.50;99.90
44671;DHT22;48397;53.016;-2.260;2023-04-24T00:26:09;7.50;99.90
44671;DHT22;48397;53.016;-2.260;2023-04-24T00:28:37;7.50;99.90
44671;DHT22;48397;53.016;-2.260;2023-04-24T00:31:05;7.50;99.90
44671;DHT22;48397;53.016;-2.260;2023-04-24T00:33:55;7.50;99.90
44671;DHT22;48397;53.016;-2.260;2023-04-24T00:36:24;7.50;99.90
44671;DHT22;48397;53.016;-2.260;2023-04-24T00:41:45;7.50;99.90
44671;DHT22;48397;53.016;-2.260;2023-04-24T00:47:06;7.60;99.90
44671;DHT22;48397;53.016;-2.260;2023-04-24T00:52:03;7.40;99.90
44671;DHT22;48397;53.016;-2.260;2023-04-24T00:54:35;7.40;99.90
44671;DHT22;48397;53.016;-2.260;2023-04-24T00:57:08;7.50;99.90
44671;DHT22;48397;53.016;-2.260;2023-04-24T00:59:53;7.40;99.90
44671;DHT22;48397;53.016;-2.260;2023-04-24T01:02:24;7.40;99.90
44671;DHT22;48397;53.016;-2.260;2023-04-24T01:04:58;7.40;99.90
44671;DHT22;48397;53.016;-2.260;2023-04-24T01:07:52;7.40;99.90
44671;DHT22;48397;53.016;-2.260;2023-04-24T01:10:23;7.40;99.90
44671;DHT22;48397;53.016;-2.260;2023-04-24T01:12:53;7.30;99.90
44671;DHT22;48397;53.016;-2.260;2023-04-24T01:17:49;7.20;99.90
44671;DHT22;48397;53.016;-2.260;2023-04-24T01:22:46;7.20;99.90
44671;DHT22;48397;53.016;-2.260;2023-04-24T01:30:12;7.20;99.90
44671;DHT22;48397;53.016;-2.260;2023-04-24T01:32:42;7.10;99.90
44671;DHT22;48397;53.016;-2.260;2023-04-24T01:35:12;7.10;99.90
44671;DHT22;48397;53.016;-2.260;2023-04-24T01:37:44;7.00;99.90
44671;DHT22;48397;53.016;-2.260;2023-04-24T01:40:17;7.00;99.90
44671;DHT22;48397;53.016;-2.260;2023-04-24T01:42:50;7.00;99.90
44671;DHT22;48397;53.016;-2.260;2023-04-24T01:47:53;6.90;99.90
44671;DHT22;48397;53.016;-2.260;2023-04-24T01:50:23;6.80;99.90
44671;DHT22;48397;53.016;-2.260;2023-04-24T01:52:53;6.80;99.90
44671;DHT22;48397;53.016;-2.260;2023-04-24T01:57:50;6.60;99.90
44671;DHT22;48397;53.016;-2.260;2023-04-24T02:00:20;6.60;99.90
44671;DHT22;48397;53.016;-2.260;2023-04-24T02:02:48;6.60;99.90
44671;DHT22;48397;53.016;-2.260;2023-04-24T02:05:19;6.50;99.90
44671;DHT22;48397;53.016;-2.260;2023-04-24T02:07:53;6.50;99.90
44671;DHT22;48397;53.016;-2.260;2023-04-24T02:10:22;6.50;99.90
44671;DHT22;48397;53.016;-2.260;2023-04-24T02:12:54;6.40;99.90
44671;DHT22;48397;53.016;-2.260;2023-04-24T02:15:24;6.50;99.90
44671;DHT22;48397;53.016;-2.260;2023-04-24T02:17:58;6.40;99.90
44671;DHT22;48397;53.016;-2.260;2023-04-24T02:20:34;6.40;99.90
44671;DHT22;48397;53.016;-2.260;2023-04-24T02:23:03;6.50;99.90
44671;DHT22;48397;53.016;-2.260;2023-04-24T02:25:31;6.40;99.90
44671;DHT22;48397;53.016;-2.260;2023-04-24T02:30:34;6.40;99.90
44671;DHT22;48397;53.016;-2.260;2023-04-24T02:33:02;6.30;99.90
44671;DHT22;48397;53.016;-2.260;2023-04-24T02:35:31;6.30;99.90
44671;DHT22;48397;53.016;-2.260;2023-04-24T02:40:26;6.20;99.90
44671;DHT22;48397;53.016;-2.260;2023-04-24T02:42:54;6.20;99.90
44671;DHT22;48397;53.016;-2.260;2023-04-24T02:45:24;7.60;99.90
44671;DHT22;48397;53.016;-2.260;2023-04-24T02:50:20;6.20;99.90
44671;DHT22;48397;53.016;-2.260;2023-04-24T02:52:49;6.10;99.90
44671;DHT22;48397;53.016;-2.260;2023-04-24T02:57:45;6.10;99.90
44671;DHT22;48397;53.016;-2.260;2023-04-24T03:00:14;6.10;99.90
44671;DHT22;48397;53.016;-2.260;2023-04-24T03:02:42;6.10;99.90
44671;DHT22;48397;53.016;-2.260;2023-04-24T03:12:15;6.00;99.90
44671;DHT22;48397;53.016;-2.260;2023-04-24T03:14:45;6.00;99.90
44671;DHT22;48397;53.016;-2.260;2023-04-24T03:17:13;6.00;99.90
44671;DHT22;48397;53.016;-2.260;2023-04-24T03:19:43;6.10;99.90
44671;DHT22;48397;53.016;-2.260;2023-04-24T03:24:45;6.10;99.90
44671;DHT22;48397;53.016;-2.260;2023-04-24T03:41:04;6.10;99.90
44671;DHT22;48397;53.016;-2.260;2023-04-24T03:43:48;6.00;99.90
44671;DHT22;48397;53.016;-2.260;2023-04-24T03:48:52;6.10;99.90
44671;DHT22;48397;53.016;-2.260;2023-04-24T03:54:02;6.10;99.90
44671;DHT22;48397;53.016;-2.260;2023-04-24T03:56:34;6.00;99.90
44671;DHT22;48397;53.016;-2.260;2023-04-24T04:01:32;6.00;99.90
44671;DHT22;48397;53.016;-2.260;2023-04-24T04:04:07;6.00;99.90
44671;DHT22;48397;53.016;-2.260;2023-04-24T04:06:43;6.00;99.90
44671;DHT22;48397;53.016;-2.260;2023-04-24T04:16:47;6.00;99.90
44671;DHT22;48397;53.016;-2.260;2023-04-24T04:19:26;6.00;99.90
44671;DHT22;48397;53.016;-2.260;2023-04-24T04:22:08;6.00;99.90
44671;DHT22;48397;53.016;-2.260;2023-04-24T04:24:53;6.00;99.90
44671;DHT22;48397;53.016;-2.260;2023-04-24T04:28:03;6.00;99.90
44671;DHT22;48397;53.016;-2.260;2023-04-24T04:30:51;6.00;99.90
44671;DHT22;48397;53.016;-2.260;2023-04-24T04:33:28;6.00;99.90
44671;DHT22;48397;53.016;-2.260;2023-04-24T04:35:57;6.00;99.90
44671;DHT22;48397;53.016;-2.260;2023-04-24T04:38:29;6.00;99.90
44671;DHT22;48397;53.016;-2.260;2023-04-24T04:41:06;6.00;99.90
44671;DHT22;48397;53.016;-2.260;2023-04-24T04:43:41;6.00;99.90
44671;DHT22;48397;53.016;-2.260;2023-04-24T04:46:12;6.00;99.90
44671;DHT22;48397;53.016;-2.260;2023-04-24T04:49:00;5.90;99.90
44671;DHT22;48397;53.016;-2.260;2023-04-24T04:51:32;5.90;99.90
44671;DHT22;48397;53.016;-2.260;2023-04-24T04:54:02;6.00;99.90
44671;DHT22;48397;53.016;-2.260;2023-04-24T04:59:32;5.90;99.90
44671;DHT22;48397;53.016;-2.260;2023-04-24T05:03:07;5.90;99.90
44671;DHT22;48397;53.016;-2.260;2023-04-24T05:14:34;6.00;99.90
44671;DHT22;48397;53.016;-2.260;2023-04-24T05:22:05;6.00;99.90
44671;DHT22;48397;53.016;-2.260;2023-04-24T05:27:31;6.00;99.90
44671;DHT22;48397;53.016;-2.260;2023-04-24T05:30:01;6.00;99.90
44671;DHT22;48397;53.016;-2.260;2023-04-24T05:35:00;6.00;99.90
44671;DHT22;48397;53.016;-2.260;2023-04-24T05:37:30;6.00;99.90
44671;DHT22;48397;53.016;-2.260;2023-04-24T05:40:00;6.00;99.90
44671;DHT22;48397;53.016;-2.260;2023-04-24T05:42:29;6.10;99.90
44671;DHT22;48397;53.016;-2.260;2023-04-24T05:44:58;6.00;99.90
44671;DHT22;48397;53.016;-2.260;2023-04-24T05:52:27;6.20;99.90
44671;DHT22;48397;53.016;-2.260;2023-04-24T05:54:55;6.20;99.90
44671;DHT22;48397;53.016;-2.260;2023-04-24T05:57:28;6.20;99.90
44671;DHT22;48397;53.016;-2.260;2023-04-24T06:00:03;6.20;99.90
44671;DHT22;48397;53.016;-2.260;2023-04-24T06:03:00;7.50;99.90
44671;DHT22;48397;53.016;-2.260;2023-04-24T06:08:04;6.30;99.90
44671;DHT22;48397;53.016;-2.260;2023-04-24T06:13:23;6.40;99.90
44671;DHT22;48397;53.016;-2.260;2023-04-24T06:16:14;6.40;99.90
44671;DHT22;48397;53.016;-2.260;2023-04-24T06:21:43;6.50;99.90
44671;DHT22;48397;53.016;-2.260;2023-04-24T06:24:39;6.50;99.90
44671;DHT22;48397;53.016;-2.260;2023-04-24T06:32:12;6.60;99.90
44671;DHT22;48397;53.016;-2.260;2023-04-24T06:34:40;6.60;99.90
44671;DHT22;48397;53.016;-2.260;2023-04-24T06:37:15;6.70;99.90
44671;DHT22;48397;53.016;-2.260;2023-04-24T06:39:44;6.70;99.90
44671;DHT22;48397;53.016;-2.260;2023-04-24T06:42:13;6.80;99.90
44671;DHT22;48397;53.016;-2.260;2023-04-24T06:44:43;6.80;99.90
44671;DHT22;48397;53.016;-2.260;2023-04-24T06:47:13;6.80;99.90
44671;DHT22;48397;53.016;-2.260;2023-04-24T06:49:41;6.80;99.90
44671;DHT22;48397;53.016;-2.260;2023-04-24T06:52:10;6.80;99.90
44671;DHT22;48397;53.016;-2.260;2023-04-24T06:54:37;6.90;99.90
44671;DHT22;48397;53.016;-2.260;2023-04-24T06:57:09;7.00;99.90
44671;DHT22;48397;53.016;-2.260;2023-04-24T07:04:37;7.10;99.90
44671;DHT22;48397;53.016;-2.260;2023-04-24T07:09:56;7.20;99.90
44671;DHT22;48397;53.016;-2.260;2023-04-24T07:12:27;7.30;99.90
44671;DHT22;48397;53.016;-2.260;2023-04-24T07:28:24;7.50;99.90
44671;DHT22;48397;53.016;-2.260;2023-04-24T07:33:22;7.50;99.90
44671;DHT22;48397;53.016;-2.260;2023-04-24T07:38:17;7.50;99.90
44671;DHT22;48397;53.016;-2.260;2023-04-24T07:40:49;7.60;99.90
44671;DHT22;48397;53.016;-2.260;2023-04-24T07:43:19;7.60;99.90
44671;DHT22;48397;53.016;-2.260;2023-04-24T07:45:47;7.60;99.90
44671;DHT22;48397;53.016;-2.260;2023-04-24T07:48:15;7.60;99.90
44671;DHT22;48397;53.016;-2.260;2023-04-24T07:53:13;7.50;99.90
44671;DHT22;48397;53.016;-2.260;2023-04-24T07:55:40;7.50;99.90
44671;DHT22;48397;53.016;-2.260;2023-04-24T07:58:08;7.60;99.90
44671;DHT22;48397;53.016;-2.260;2023-04-24T08:00:36;7.60;99.90
44671;DHT22;48397;53.016;-2.260;2023-04-24T08:03:04;7.60;99.90
44671;DHT22;48397;53.016;-2.260;2023-04-24T08:05:35;7.80;99.90
44671;DHT22;48397;53.016;-2.260;2023-04-24T08:08:06;8.00;99.90
44671;DHT22;48397;53.016;-2.260;2023-04-24T08:10:38;8.10;99.90
44671;DHT22;48397;53.016;-2.260;2023-04-24T08:13:53;7.60;99.90
44671;DHT22;48397;53.016;-2.260;2023-04-24T08:16:55;8.10;99.90
44671;DHT22;48397;53.016;-2.260;2023-04-24T08:26:18;8.30;99.90
44671;DHT22;48397;53.016;-2.260;2023-04-24T08:29:22;8.40;99.90
44671;DHT22;48397;53.016;-2.260;2023-04-24T08:34:19;8.50;99.90
44671;DHT22;48397;53.016;-2.260;2023-04-24T08:36:48;8.40;99.90
44671;DHT22;48397;53.016;-2.260;2023-04-24T08:39:15;8.40;99.90
44671;DHT22;48397;53.016;-2.260;2023-04-24T08:41:45;8.50;99.90
44671;DHT22;48397;53.016;-2.260;2023-04-24T08:44:13;8.60;99.90
44671;DHT22;48397;53.016;-2.260;2023-04-24T08:46:44;8.60;99.90
44671;DHT22;48397;53.016;-2.260;2023-04-24T08:49:15;8.60;99.90
44671;DHT22;48397;53.016;-2.260;2023-04-24T08:51:46;8.70;99.90
44671;DHT22;48397;53.016;-2.260;2023-04-24T08:54:15;8.80;99.90
44671;DHT22;48397;53.016;-2.260;2023-04-24T08:56:44;8.80;99.90
44671;DHT22;48397;53.016;-2.260;2023-04-24T08:59:13;8.80;99.90
44671;DHT22;48397;53.016;-2.260;2023-04-24T09:01:43;8.90;99.90
44671;DHT22;48397;53.016;-2.260;2023-04-24T09:04:14;8.90;99.90
44671;DHT22;48397;53.016;-2.260;2023-04-24T09:06:44;9.00;99.90
44671;DHT22;48397;53.016;-2.260;2023-04-24T09:09:12;9.10;99.90
44671;DHT22;48397;53.016;-2.260;2023-04-24T09:11:40;9.10;99.90
44671;DHT22;48397;53.016;-2.260;2023-04-24T09:14:09;9.20;99.90
44671;DHT22;48397;53.016;-2.260;2023-04-24T09:16:38;9.30;99.90
44671;DHT22;48397;53.016;-2.260;2023-04-24T09:21:35;9.30;99.90
44671;DHT22;48397;53.016;-2.260;2023-04-24T09:24:08;9.30;99.90
44671;DHT22;48397;53.016;-2.260;2023-04-24T09:26:42;9.60;99.90
44671;DHT22;48397;53.016;-2.260;2023-04-24T09:29:15;9.60;99.90
44671;DHT22;48397;53.016;-2.260;2023-04-24T09:31:45;9.70;99.90
44671;DHT22;48397;53.016;-2.260;2023-04-24T09:34:13;9.70;99.90
44671;DHT22;48397;53.016;-2.260;2023-04-24T09:36:44;9.70;99.90
44671;DHT22;48397;53.016;-2.260;2023-04-24T09:39:13;9.80;99.90
44671;DHT22;48397;53.016;-2.260;2023-04-24T09:41:54;9.80;99.90
44671;DHT22;48397;53.016;-2.260;2023-04-24T09:44:28;10.10;99.90
44671;DHT22;48397;53.016;-2.260;2023-04-24T09:46:58;10.10;99.90
44671;DHT22;48397;53.016;-2.260;2023-04-24T09:49:29;10.00;99.90
44671;DHT22;48397;53.016;-2.260;2023-04-24T09:52:08;10.00;99.90
44671;DHT22;48397;53.016;-2.260;2023-04-24T09:54:39;10.10;99.90
44671;DHT22;48397;53.016;-2.260;2023-04-24T09:57:08;10.30;99.90
44671;DHT22;48397;53.016;-2.260;2023-04-24T09:59:42;10.50;99.90
44671;DHT22;48397;53.016;-2.260;2023-04-24T10:02:19;10.30;99.90
44671;DHT22;48397;53.016;-2.260;2023-04-24T10:04:58;10.90;99.90
44671;DHT22;48397;53.016;-2.260;2023-04-24T10:07:28;10.90;99.90
44671;DHT22;48397;53.016;-2.260;2023-04-24T10:09:56;11.00;99.90
44671;DHT22;48397;53.016;-2.260;2023-04-24T10:12:24;11.10;99.90
44671;DHT22;48397;53.016;-2.260;2023-04-24T10:14:54;10.90;99.90
44671;DHT22;48397;53.016;-2.260;2023-04-24T10:20:02;10.90;99.90
44671;DHT22;48397;53.016;-2.260;2023-04-24T10:22:56;11.00;99.90
44671;DHT22;48397;53.016;-2.260;2023-04-24T10:25:35;11.10;99.90
44671;DHT22;48397;53.016;-2.260;2023-04-24T10:28:04;11.20;99.90
44671;DHT22;48397;53.016;-2.260;2023-04-24T10:30:36;11.00;99.90
44671;DHT22;48397;53.016;-2.260;2023-04-24T10:33:18;10.90;99.90
44671;DHT22;48397;53.016;-2.260;2023-04-24T10:37:31;10.80;99.90
44671;DHT22;48397;53.016;-2.260;2023-04-24T10:40:11;10.80;99.90
44671;DHT22;48397;53.016;-2.260;2023-04-24T10:43:02;10.80;99.90
44671;DHT22;48397;53.016;-2.260;2023-04-24T10:45:42;10.90;99.90
44671;DHT22;48397;53.016;-2.260;2023-04-24T10:49:11;10.70;99.90
44671;DHT22;48397;53.016;-2.260;2023-04-24T10:54:51;11.00;99.90
44671;DHT22;48397;53.016;-2.260;2023-04-24T10:59:47;11.90;99.90
44671;DHT22;48397;53.016;-2.260;2023-04-24T11:02:15;11.10;99.90
44671;DHT22;48397;53.016;-2.260;2023-04-24T11:04:45;11.40;99.90
44671;DHT22;48397;53.016;-2.260;2023-04-24T11:07:15;11.40;99.90
44671;DHT22;48397;53.016;-2.260;2023-04-24T11:09:43;11.70;99.90
44671;DHT22;48397;53.016;-2.260;2023-04-24T11:12:12;12.00;99.90
44671;DHT22;48397;53.016;-2.260;2023-04-24T11:14:59;12.20;99.90
44671;DHT22;48397;53.016;-2.260;2023-04-24T11:17:36;12.20;99.90
44671;DHT22;48397;53.016;-2.260;2023-04-24T11:20:07;11.90;99.90
44671;DHT22;48397;53.016;-2.260;2023-04-24T11:22:54;11.70;99.90
44671;DHT22;48397;53.016;-2.260;2023-04-24T11:25:23;11.60;99.90
44671;DHT22;48397;53.016;-2.260;2023-04-24T11:27:51;11.50;99.90
44671;DHT22;48397;53.016;-2.260;2023-04-24T11:30:31;11.70;99.90
44671;DHT22;48397;53.016;-2.260;2023-04-24T11:33:05;12.00;99.90
44671;DHT22;48397;53.016;-2.260;2023-04-24T11:35:40;12.00;99.90
44671;DHT22;48397;53.016;-2.260;2023-04-24T11:38:10;12.00;99.90
44671;DHT22;48397;53.016;-2.260;2023-04-24T11:40:52;11.50;99.90
44671;DHT22;48397;53.016;-2.260;2023-04-24T11:43:21;11.20;99.90
44671;DHT22;48397;53.016;-2.260;2023-04-24T11:45:49;11.00;99.90
44671;DHT22;48397;53.016;-2.260;2023-04-24T11:48:20;11.00;99.90
44671;DHT22;48397;53.016;-2.260;2023-04-24T11:50:51;10.90;99.90
44671;DHT22;48397;53.016;-2.260;2023-04-24T11:53:20;10.80;99.90
44671;DHT22;48397;53.016;-2.260;2023-04-24T11:55:50;10.90;99.90
44671;DHT22;48397;53.016;-2.260;2023-04-24T11:58:22;10.90;99.90
44671;DHT22;48397;53.016;-2.260;2023-04-24T12:00:58;11.00;99.90
44671;DHT22;48397;53.016;-2.260;2023-04-24T12:03:27;11.10;99.90
44671;DHT22;48397;53.016;-2.260;2023-04-24T12:06:10;11.30;99.90
44671;DHT22;48397;53.016;-2.260;2023-04-24T12:08:40;11.20;99.90
44671;DHT22;48397;53.016;-2.260;2023-04-24T12:13:37;11.20;99.90
44671;DHT22;48397;53.016;-2.260;2023-04-24T12:16:06;11.30;99.90
44671;DHT22;48397;53.016;-2.260;2023-04-24T12:18:42;11.40;99.90
44671;DHT22;48397;53.016;-2.260;2023-04-24T12:21:19;11.30;99.90
44671;DHT22;48397;53.016;-2.260;2023-04-24T12:23:49;11.40;99.90
44671;DHT22;48397;53.016;-2.260;2023-04-24T12:26:19;11.70;99.90
44671;DHT22;48397;53.016;-2.260;2023-04-24T12:28:49;11.60;99.90
44671;DHT22;48397;53.016;-2.260;2023-04-24T12:31:17;11.50;99.90
44671;DHT22;48397;53.016;-2.260;2023-04-24T12:33:48;11.60;99.90
44671;DHT22;48397;53.016;-2.260;2023-04-24T12:36:16;11.40;99.90
44671;DHT22;48397;53.016;-2.260;2023-04-24T12:38:44;11.30;99.90
44671;DHT22;48397;53.016;-2.260;2023-04-24T12:41:14;11.20;99.90
44671;DHT22;48397;53.016;-2.260;2023-04-24T12:43:52;11.00;99.90
44671;DHT22;48397;53.016;-2.260;2023-04-24T12:46:20;10.90;99.90
44671;DHT22;48397;53.016;-2.260;2023-04-24T12:48:49;10.90;99.90
44671;DHT22;48397;53.016;-2.260;2023-04-24T12:51:17;10.80;99.90
44671;DHT22;48397;53.016;-2.260;2023-04-24T12:53:45;10.90;99.90
44671;DHT22;48397;53.016;-2.260;2023-04-24T12:56:12;10.90;99.90
44671;DHT22;48397;53.016;-2.260;2023-04-24T12:58:41;10.80;99.90
44671;DHT22;48397;53.016;-2.260;2023-04-24T13:01:09;10.90;99.90
44671;DHT22;48397;53.016;-2.260;2023-04-24T13:03:38;10.90;99.90
44671;DHT22;48397;53.016;-2.260;2023-04-24T13:06:06;10.90;99.90
44671;DHT22;48397;53.016;-2.260;2023-04-24T13:08:34;10.90;99.90
44671;DHT22;48397;53.016;-2.260;2023-04-24T13:11:02;12.80;99.90
44671;DHT22;48397;53.016;-2.260;2023-04-24T13:13:32;11.20;99.90
44671;DHT22;48397;53.016;-2.260;2023-04-24T13:16:04;11.30;99.90
44671;DHT22;48397;53.016;-2.260;2023-04-24T13:18:33;11.40;99.90
44671;DHT22;48397;53.016;-2.260;2023-04-24T13:21:06;11.60;99.90
44671;DHT22;48397;53.016;-2.260;2023-04-24T13:23:36;11.70;99.90
44671;DHT22;48397;53.016;-2.260;2023-04-24T13:29:55;11.90;99.90
44671;DHT22;48397;53.016;-2.260;2023-04-24T13:38:50;12.00;99.90
44671;DHT22;48397;53.016;-2.260;2023-04-24T13:41:18;11.90;99.90
44671;DHT22;48397;53.016;-2.260;2023-04-24T13:43:54;11.80;99.90
44671;DHT22;48397;53.016;-2.260;2023-04-24T13:46:36;11.90;99.90
44671;DHT22;48397;53.016;-2.260;2023-04-24T13:51:50;12.30;99.90
44671;DHT22;48397;53.016;-2.260;2023-04-24T13:55:02;12.40;99.90
44671;DHT22;48397;53.016;-2.260;2023-04-24T13:57:58;12.50;99.90
44671;DHT22;48397;53.016;-2.260;2023-04-24T14:00:41;12.60;99.90
44671;DHT22;48397;53.016;-2.260;2023-04-24T14:03:59;13.00;99.90
44671;DHT22;48397;53.016;-2.260;2023-04-24T14:07:35;13.40;99.90
44671;DHT22;48397;53.016;-2.260;2023-04-24T14:11:17;13.30;99.90
44671;DHT22;48397;53.016;-2.260;2023-04-24T14:13:50;13.10;99.90
44671;DHT22;48397;53.016;-2.260;2023-04-24T14:18:55;12.30;99.40
44671;DHT22;48397;53.016;-2.260;2023-04-24T14:21:37;11.80;99.10
44671;DHT22;48397;53.016;-2.260;2023-04-24T14:27:02;11.10;99.90
44671;DHT22;48397;53.016;-2.260;2023-04-24T14:29:36;11.00;99.90
44671;DHT22;48397;53.016;-2.260;2023-04-24T14:32:04;11.00;99.90
44671;DHT22;48397;53.016;-2.260;2023-04-24T14:34:33;10.90;99.90
44671;DHT22;48397;53.016;-2.260;2023-04-24T14:39:28;10.80;99.90
44671;DHT22;48397;53.016;-2.260;2023-04-24T14:41:56;10.80;99.90
44671;DHT22;48397;53.016;-2.260;2023-04-24T14:44:24;10.90;99.90
44671;DHT22;48397;53.016;-2.260;2023-04-24T14:46:52;11.00;99.90
44671;DHT22;48397;53.016;-2.260;2023-04-24T14:49:23;11.10;99.90
44671;DHT22;48397;53.016;-2.260;2023-04-24T14:51:54;11.10;99.90
44671;DHT22;48397;53.016;-2.260;2023-04-24T14:54:22;11.00;99.90
44671;DHT22;48397;53.016;-2.260;2023-04-24T14:56:55;11.00;99.90
44671;DHT22;48397;53.016;-2.260;2023-04-24T14:59:30;11.00;99.90
44671;DHT22;48397;53.016;-2.260;2023-04-24T15:02:16;10.90;99.90
44671;DHT22;48397;53.016;-2.260;2023-04-24T15:04:47;10.80;99.90
44671;DHT22;48397;53.016;-2.260;2023-04-24T15:07:18;10.60;99.90
44671;DHT22;48397;53.016;-2.260;2023-04-24T15:10:02;10.50;99.90
44671;DHT22;48397;53.016;-2.260;2023-04-24T15:12:30;10.50;99.90
44671;DHT22;48397;53.016;-2.260;2023-04-24T15:14:58;10.40;99.90
44671;DHT22;48397;53.016;-2.260;2023-04-24T15:17:27;10.40;99.90
44671;DHT22;48397;53.016;-2.260;2023-04-24T15:20:01;10.40;99.90
44671;DHT22;48397;53.016;-2.260;2023-04-24T15:22:30;10.40;99.90
44671;DHT22;48397;53.016;-2.260;2023-04-24T15:24:58;10.40;99.90
44671;DHT22;48397;53.016;-2.260;2023-04-24T15:27:39;10.50;99.90
44671;DHT22;48397;53.016;-2.260;2023-04-24T15:30:08;10.50;99.90
44671;DHT22;48397;53.016;-2.260;2023-04-24T15:32:36;10.70;99.90
44671;DHT22;48397;53.016;-2.260;2023-04-24T15:35:10;10.70;99.90
44671;DHT22;48397;53.016;-2.260;2023-04-24T15:37:38;10.80;99.90
44671;DHT22;48397;53.016;-2.260;2023-04-24T15:40:33;10.70;99.90
44671;DHT22;48397;53.016;-2.260;2023-04-24T15:43:22;10.80;99.90
44671;DHT22;48397;53.016;-2.260;2023-04-24T15:47:13;10.80;99.90
44671;DHT22;48397;53.016;-2.260;2023-04-24T15:50:11;10.80;99.90
44671;DHT22;48397;53.016;-2.260;2023-04-24T15:54:28;10.80;99.90
44671;DHT22;48397;53.016;-2.260;2023-04-24T16:01:08;10.30;99.90
44671;DHT22;48397;53.016;-2.260;2023-04-24T16:03:45;10.10;99.90
44671;DHT22;48397;53.016;-2.260;2023-04-24T16:07:46;9.90;99.90
44671;DHT22;48397;53.016;-2.260;2023-04-24T16:10:19;9.90;99.90
44671;DHT22;48397;53.016;-2.260;2023-04-24T16:12:47;9.90;99.90
44671;DHT22;48397;53.016;-2.260;2023-04-24T16:15:14;9.80;99.90
44671;DHT22;48397;53.016;-2.260;2023-04-24T16:17:43;9.90;99.90
44671;DHT22;48397;53.016;-2.260;2023-04-24T16:20:11;9.90;99.90
44671;DHT22;48397;53.016;-2.260;2023-04-24T16:25:10;9.90;99.90
44671;DHT22;48397;53.016;-2.260;2023-04-24T16:27:38;14.50;99.90
44671;DHT22;48397;53.016;-2.260;2023-04-24T16:30:08;10.10;99.90
44671;DHT22;48397;53.016;-2.260;2023-04-24T16:32:36;10.20;99.90
44671;DHT22;48397;53.016;-2.260;2023-04-24T16:35:04;10.20;99.90
44671;DHT22;48397;53.016;-2.260;2023-04-24T16:37:32;10.10;99.90
44671;DHT22;48397;53.016;-2.260;2023-04-24T16:40:00;10.00;99.90
44671;DHT22;48397;53.016;-2.260;2023-04-24T16:42:28;9.90;99.90
44671;DHT22;48397;53.016;-2.260;2023-04-24T16:44:56;10.00;99.90
44671;DHT22;48397;53.016;-2.260;2023-04-24T16:47:24;9.90;99.90
44671;DHT22;48397;53.016;-2.260;2023-04-24T16:49:54;9.90;99.90
44671;DHT22;48397;53.016;-2.260;2023-04-24T16:58:04;9.80;99.90
44671;DHT22;48397;53.016;-2.260;2023-04-24T17:03:01;9.50;99.90
44671;DHT22;48397;53.016;-2.260;2023-04-24T17:05:29;9.50;99.90
44671;DHT22;48397;53.016;-2.260;2023-04-24T17:07:56;9.40;99.90
44671;DHT22;48397;53.016;-2.260;2023-04-24T17:10:24;9.40;99.90
44671;DHT22;48397;53.016;-2.260;2023-04-24T17:12:53;9.20;99.90
44671;DHT22;48397;53.016;-2.260;2023-04-24T17:15:22;9.20;99.90
44671;DHT22;48397;53.016;-2.260;2023-04-24T17:20:18;9.20;99.90
44671;DHT22;48397;53.016;-2.260;2023-04-24T17:22:50;9.10;99.90
44671;DHT22;48397;53.016;-2.260;2023-04-24T17:25:18;9.00;99.90
44671;DHT22;48397;53.016;-2.260;2023-04-24T17:27:46;9.10;99.90
44671;DHT22;48397;53.016;-2.260;2023-04-24T17:30:14;8.90;99.90
44671;DHT22;48397;53.016;-2.260;2023-04-24T17:32:44;8.90;99.90
44671;DHT22;48397;53.016;-2.260;2023-04-24T17:37:40;8.90;99.90
44671;DHT22;48397;53.016;-2.260;2023-04-24T17:40:08;8.90;99.90
44671;DHT22;48397;53.016;-2.260;2023-04-24T17:45:08;8.80;99.90
44671;DHT22;48397;53.016;-2.260;2023-04-24T17:47:36;8.80;99.90
44671;DHT22;48397;53.016;-2.260;2023-04-24T17:50:04;8.70;99.90
44671;DHT22;48397;53.016;-2.260;2023-04-24T17:52:33;8.60;99.90
44671;DHT22;48397;53.016;-2.260;2023-04-24T17:59:57;8.50;99.90
44671;DHT22;48397;53.016;-2.260;2023-04-24T18:02:25;8.50;99.90
44671;DHT22;48397;53.016;-2.260;2023-04-24T18:04:53;8.50;99.90
44671;DHT22;48397;53.016;-2.260;2023-04-24T18:07:22;8.40;99.90
44671;DHT22;48397;53.016;-2.260;2023-04-24T18:09:50;8.40;99.90
44671;DHT22;48397;53.016;-2.260;2023-04-24T18:12:17;8.40;99.90
44671;DHT22;48397;53.016;-2.260;2023-04-24T18:14:45;8.40;99.90
44671;DHT22;48397;53.016;-2.260;2023-04-24T18:17:13;8.40;99.90
44671;DHT22;48397;53.016;-2.260;2023-04-24T18:19:41;8.40;99.90
44671;DHT22;48397;53.016;-2.260;2023-04-24T18:22:08;8.40;99.90
44671;DHT22;48397;53.016;-2.260;2023-04-24T18:24:36;6.90;99.90
44671;DHT22;48397;53.016;-2.260;2023-04-24T18:27:03;8.40;99.90
44671;DHT22;48397;53.016;-2.260;2023-04-24T18:29:31;8.30;99.90
44671;DHT22;48397;53.016;-2.260;2023-04-24T18:31:59;8.30;99.90
44671;DHT22;48397;53.016;-2.260;2023-04-24T18:34:27;8.20;99.90
44671;DHT22;48397;53.016;-2.260;2023-04-24T18:36:55;8.20;99.90
44671;DHT22;48397;53.016;-2.260;2023-04-24T18:39:23;8.20;99.90
44671;DHT22;48397;53.016;-2.260;2023-04-24T18:41:50;8.10;99.90
44671;DHT22;48397;53.016;-2.260;2023-04-24T18:44:18;8.10;99.90
44671;DHT22;48397;53.016;-2.260;2023-04-24T18:46:46;8.00;99.90
44671;DHT22;48397;53.016;-2.260;2023-04-24T18:49:14;8.00;99.90
44671;DHT22;48397;53.016;-2.260;2023-04-24T18:51:42;8.00;99.90
44671;DHT22;48397;53.016;-2.260;2023-04-24T18:54:19;8.00;99.90
44671;DHT22;48397;53.016;-2.260;2023-04-24T18:56:47;7.90;99.90
44671;DHT22;48397;53.016;-2.260;2023-04-24T18:59:15;7.90;99.90
44671;DHT22;48397;53.016;-2.260;2023-04-24T19:06:42;7.90;99.90
44671;DHT22;48397;53.016;-2.260;2023-04-24T19:09:10;7.90;99.90
44671;DHT22;48397;53.016;-2.260;2023-04-24T19:11:40;7.90;99.90
44671;DHT22;48397;53.016;-2.260;2023-04-24T19:14:08;7.80;99.90
44671;DHT22;48397;53.016;-2.260;2023-04-24T19:16:36;7.80;99.90
44671;DHT22;48397;53.016;-2.260;2023-04-24T19:19:04;7.80;99.90
44671;DHT22;48397;53.016;-2.260;2023-04-24T19:21:32;7.80;99.90
44671;DHT22;48397;53.016;-2.260;2023-04-24T19:24:00;7.70;99.90
44671;DHT22;48397;53.016;-2.260;2023-04-24T19:26:27;7.60;99.90
44671;DHT22;48397;53.016;-2.260;2023-04-24T19:28:57;7.50;99.90
44671;DHT22;48397;53.016;-2.260;2023-04-24T19:31:25;7.40;99.90
44671;DHT22;48397;53.016;-2.260;2023-04-24T19:33:53;7.40;99.90
44671;DHT22;48397;53.016;-2.260;2023-04-24T19:36:21;7.30;99.90
44671;DHT22;48397;53.016;-2.260;2023-04-24T19:38:49;7.30;99.90
44671;DHT22;48397;53.016;-2.260;2023-04-24T19:41:18;7.10;99.90